Alder, Washington
Current Conditions -  °F | °C
As of 12:21 AM on Sunday 21 Dec 2014 (Local Time) from KGRF Reporting Station
Light Rain Light Rain  
Wind Chill: 12°   Ceiling: 2900
Heat Index: 12°   Visibility: 7mi
Dew Point: 12°   Wind: 5mph
Humidity: 100%   Direction: NA
Pressure: 29.61"   Gusts: NA
Location:  46.8687°N, 122.208°W
Report Text: KGRF 210821Z VRB04KT 7SM -RA FEW011 BKN029 OVC035 12/12 A2961 RMK AO2A RAB06
Loading
Personal Weather Stations






























Interactive Weather Map New forecast layout! Learn more

10-Day Weather Forecast

Advertisements
Track Severe Weather on mobile